Monticello, AR

8:00 PM CDT on July 23, 2014 (GMT -0500)
Hwy 172 (KARMONTI2) Elev 246 ft | 33.55 °N, 91.82 °W | Change Station

Current weather conditions updated 28 seconds ago

Partly Cloudy
Partly Cloudy
75.1 °F
Feels Like 78 °F
N
0.0
Wind Variable Wind from South
Gusts 0.0 mph

Tomorrow is forecast to be nearly the same temperature as today.

Today
High -- | Low -- °F
--% Chance of Precip.
Yesterday
High -- | Low -- °F
Precip. -- in
6:13 AM 8:13 PM
Waning Crescent, 8% visible
Pressure 30.03 in
Visibility 10.0 miles
Clouds Few 1400 ft
Heat Index 78 °F
Dew Point 54 °F
Humidity 47%
Rainfall 0.00 in
Snow Depth Not available.
UV 0 out of 12
Pollen 3.80 out of 12
Air Quality Not available.
Flu Activity Not available.
METAR KLLQ 240053Z AUTO 31010G22KT 10SM FEW014 24/20 A3004 RMK AO2 PK WND 31031/0009 SLP167 T02390200

More Conditions Fewer Conditions

Pressure 30.03 in
Visibility 10.0 miles
Clouds Few 1400 ft
Heat Index 78 °F
Dew Point 54 °F
Humidity 47%
Rainfall 0.00 in
Snow Depth Not available.
UV 0 out of 12
Pollen 3.80 out of 12
Air Quality Not available.
Flu Activity Not available.
METAR KLLQ 240053Z AUTO 31010G22KT 10SM FEW014 24/20 A3004 RMK AO2 PK WND 31031/0009 SLP167 T02390200

More Conditions Fewer Conditions

10-Day Weather Forecast

Almanac

Astronomy

Jul. 23, 2014 Rise Set
Actual Time 6:13 AM CDT 8:13 PM CDT
Civil Twilight 5:45 AM CDT 8:41 PM CDT
Nautical Twilight 5:11 AM CDT 9:15 PM CDT
Astronomical Twilight 4:35 AM CDT 9:51 PM CDT
Moon 3:31 AM CDT (7/23) 5:43 PM CDT (7/23)
Length of Visible Light 14h 56m
Length of Day
14h 00m
Tomorrow will be 1m 18s shorter.
Waning Crescent, 8% of the Moon is Illuminated
Today
Waning Crescent
Jul 26
New
Aug 3
First Quarter
Aug 10
Full
Aug 17
Last Quarter

Today's Extremes

State Highs State Lows

Community

WunderPhotos

Upload Photos

1,736,839 photos uploaded!

Nearby

Snow Depth

Station Depth Elevation
No new snow has been reported.

Earthquake Activity

City Distance Mag. Time & Date
No recent earthquake activity has been reported nearby.
Minimum magnitude displayed is 2.5.

Coastal Water Temperatures

Place Temperature
No Stations Reporting

Nearby Weather Stations

Station Location Temp. Heat Index Dew Point Humidity Wind Precip. Elev Updated Type
RAWS UAM AR, Monticello, AR 83 °F 93 °F 78 °F 84% WNW  at  5 mph 0.00 in / hr 183 ft 7:00 PM CDT MADIS
Hwy 172, Monticello, AR 75.1 °F 78 °F 54 °F 47% South  at  0.0 mph 0.00 in / hr 246 ft 8:00 PM CDT Normal
MesoWest WNCSTR , Winchester, AR 87 °F 84 °F - - North  at  - 0.00 in / hr 162 ft 6:40 PM CDT MADIS
MesoWest DERMOT , Dermott, AR 88 °F 85 °F - - North  at  - 0.00 in / hr 143 ft 6:25 PM CDT MADIS

Show More Stations Show Fewer Stations